Aérodrome :







RETROUVEZ-NOUS SUR...

 
LOGIN :

S'inscrire | Disclaimer

   EN    FR    IT 

 









Légende :    VFR   VFR Marginal   IFR   IFR Intensif   IFR Très Intensif
Visi : 
Plafond : 
>= 8 km
>= 3000ft
5 à 8 km
1000 à 3000 ft
1500m à 5 km
500 à 1000 ft
800 à 1500m
200 à 500 ft
< 800m
< 200 ft
Symboles :   Orages  Brouillard  Fortes neiges  Fortes précipitations  Vent > 20 kt






- Altitude de l'aérodrome : 266 ft
- Code IATA : MHT


KMHT - Manchester

DERNIER METAR :
  • 201853Z 32010G18KT 10SM BKN065 BKN250 M01/M16 A3030 RMK AO2 SLP281 T10061156

METARs EXPIRÉS :
  • 201753Z 25008KT 10SM BKN065 BKN250 M01/M15 A3032 RMK AO2 SLP288 4/001 T10061150 11006 21089 58022
  • 201653Z 28010G15KT 10SM BKN060 BKN250 M01/M15 A3036 RMK AO2 SLP299 T10111150

TAF KMHT
Valide du 20 à 18h jusqu'au 21 à 18h UTC


201720Z 2018/2118 29010KT P6SM SCT050
FM202200 30003KT P6SM SKC



MET'MAP, la Météo Aéronautique d'un coup d'oeil ! - Copyright ORBIFLY Décembre 2007 - Disclaimer

ORBIFLY MET'MAP TEAM :

Programmation & Développement : Alexandra Zaïnal
Sur une idée originale de : Baudouin d'Aumeries
Assistance à la programmation : Marc-Olivier Méhu
Soutien technique & logistique : Manuel Goepfert

Contact : metmap@orbifly.com




SOURCES & CREDITS :

   NOAA